Terminal Aerodrome Forecast
Issued by NWS Boston, MA

Home | Current Version | Previous Version | Text Only | Print | Product List | Glossary On
Versions: 1 2 3 4 5 6 7 8 9 10 11 12 13 14 15 16 17
000
FTUS41 KBOX 252339
TAFORH
TAF
KORH 252339Z 2600/2624 05010G22KT 2SM BR VCSH OVC003
     FM260400 04008KT 1SM -RA BR OVC003
     FM260600 04007KT 2SM RA BR OVC003
     FM261100 36006KT 1 1/2SM RA BR OVC003
     FM261300 34010KT 2SM -RA BR OVC008
     FM261500 32010KT 3SM BR VCSH OVC008
     FM261700 32010KT 4SM BR VCSH OVC015
     FM261900 31010KT P6SM OVC020=

USA.gov is the U.S. government's official web portal to all federal, state and local government web resources and services.